Time;durP1;ratioP1;P1;durP2;ratioP2;P2;SDS_P1;SDS_P2;PMS_P1;PMS_P2;Temp;Humidity;BMP_temperature;BMP_pressure;BME280_temperature;BME280_humidity;BME280_pressure;Samples;Min_cycle;Max_cycle;Signal;HPM_P1;HPM_P2
2023/04/26 00:00:30;;;;;;;;;14.00;11.00;21.10;44.00;;;;;;109896;1256;49401;-57
2023/04/26 00:03:13;;;;;;;;;13.50;10.50;21.10;44.30;;;;;;109900;1252;46108;-57
2023/04/26 00:05:41;;;;;;;;;12.00;11.00;21.00;43.90;;;;;;109961;1253;55489;-56
2023/04/26 00:08:08;;;;;;;;;15.00;14.00;21.10;44.00;;;;;;109983;1257;53726;-58
2023/04/26 00:10:35;;;;;;;;;14.00;12.50;21.00;44.10;;;;;;109961;1252;49868;-58
2023/04/26 00:13:02;;;;;;;;;15.00;12.00;21.00;44.00;;;;;;110043;1255;50387;-59
2023/04/26 00:15:29;;;;;;;;;11.50;10.50;21.00;43.90;;;;;;109940;1252;45589;-58
2023/04/26 00:17:56;;;;;;;;;12.00;11.00;21.00;44.40;;;;;;110019;1257;55316;-58
2023/04/26 00:20:23;;;;;;;;;11.00;10.00;21.00;43.50;;;;;;109966;1257;53313;-58
2023/04/26 00:22:50;;;;;;;;;11.00;10.00;21.00;43.90;;;;;;109891;1252;49548;-58
2023/04/26 00:25:17;;;;;;;;;12.00;11.00;21.00;43.90;;;;;;109950;1257;49246;-58
2023/04/26 00:27:44;;;;;;;;;11.50;10.50;21.00;44.50;;;;;;110013;1257;45253;-57
2023/04/26 00:30:12;;;;;;;;;12.00;10.00;21.00;43.50;;;;;;109970;1254;56375;-59
2023/04/26 00:32:39;;;;;;;;;11.00;10.00;21.00;43.90;;;;;;109989;1252;54307;-57
2023/04/26 00:35:07;;;;;;;;;14.00;12.50;21.00;44.00;;;;;;109999;1256;50356;-58
2023/04/26 00:37:34;;;;;;;;;14.00;12.00;21.00;44.00;;;;;;109976;1255;50153;-59
2023/04/26 00:40:01;;;;;;;;;13.00;11.00;21.00;44.00;;;;;;109916;1257;45767;-58
2023/04/26 00:42:29;;;;;;;;;12.00;11.00;21.00;44.20;;;;;;109949;1252;55804;-59
2023/04/26 00:44:56;;;;;;;;;12.00;11.00;20.90;43.90;;;;;;110003;1254;54046;-58
2023/04/26 00:47:28;;;;;;;;;10.00;9.00;20.90;44.10;;;;;;109921;1255;50962;-59
2023/04/26 00:49:55;;;;;;;;;11.50;10.00;20.90;43.90;;;;;;109942;1257;49149;-57
2023/04/26 00:52:24;;;;;;;;;11.00;10.00;20.90;44.50;;;;;;109981;1252;45631;-58
2023/04/26 00:54:52;;;;;;;;;13.67;12.00;20.90;44.10;;;;;;109950;1252;55728;-58
2023/04/26 00:57:21;;;;;;;;;10.00;9.00;20.90;44.10;;;;;;109911;1256;53996;-58
2023/04/26 00:59:48;;;;;;;;;14.00;10.50;20.90;43.60;;;;;;109885;1252;49826;-57
2023/04/26 01:02:16;;;;;;;;;11.00;10.00;20.90;43.90;;;;;;109901;1257;49077;-58
2023/04/26 01:04:44;;;;;;;;;13.00;12.00;20.90;43.90;;;;;;110034;1253;45537;-57
2023/04/26 01:07:11;;;;;;;;;11.00;10.00;20.90;43.90;;;;;;109940;1252;56260;-59
2023/04/26 01:09:38;;;;;;;;;9.00;8.00;20.90;43.90;;;;;;110044;1255;53485;-59
2023/04/26 01:12:06;;;;;;;;;16.00;11.00;20.90;44.10;;;;;;109961;1254;49392;-57
2023/04/26 01:14:35;;;;;;;;;12.00;10.50;20.90;43.90;;;;;;109938;1257;49677;-62
2023/04/26 01:17:04;;;;;;;;;12.00;11.00;20.90;43.90;;;;;;109939;1257;46167;-57
2023/04/26 01:19:31;;;;;;;;;12.50;10.00;20.90;43.90;;;;;;110008;1255;56789;-58
2023/04/26 01:21:58;;;;;;;;;11.00;9.50;20.90;43.90;;;;;;109964;1252;54871;-58
2023/04/26 01:24:25;;;;;;;;;10.00;9.00;20.90;43.90;;;;;;109996;1257;48989;-56
2023/04/26 01:26:52;;;;;;;;;12.00;11.00;20.90;44.10;;;;;;109909;1257;50332;-58
2023/04/26 01:29:20;;;;;;;;;12.00;10.00;20.90;43.90;;;;;;109969;1252;46338;-58
2023/04/26 01:31:48;;;;;;;;;11.00;9.50;20.80;43.80;;;;;;109970;1252;55553;-59
2023/04/26 01:34:15;;;;;;;;;10.50;10.00;20.90;43.90;;;;;;109922;1252;54160;-57
2023/04/26 01:36:42;;;;;;;;;12.00;11.00;20.90;43.90;;;;;;110131;1252;49764;-57
2023/04/26 01:39:09;;;;;;;;;12.00;10.00;20.90;43.90;;;;;;109877;1252;50045;-59
2023/04/26 01:41:36;;;;;;;;;11.00;10.00;20.90;43.90;;;;;;109890;1254;45593;-58
2023/04/26 01:44:03;;;;;;;;;11.00;9.50;20.90;43.90;;;;;;109896;1253;55949;-58
2023/04/26 01:46:30;;;;;;;;;11.67;10.00;20.80;43.90;;;;;;109938;1257;53928;-58
2023/04/26 01:48:57;;;;;;;;;13.00;10.00;20.80;43.90;;;;;;109920;1252;50259;-58
2023/04/26 01:51:24;;;;;;;;;10.00;9.33;20.80;43.80;;;;;;109916;1252;49615;-57
2023/04/26 01:53:52;;;;;;;;;11.00;9.00;20.80;43.80;;;;;;109922;1253;45397;-58
2023/04/26 01:56:19;;;;;;;;;12.00;10.00;20.80;43.90;;;;;;109935;1252;56189;-57
2023/04/26 01:58:46;;;;;;;;;13.00;11.00;20.80;43.80;;;;;;109964;1255;53590;-59
2023/04/26 02:01:13;;;;;;;;;11.00;10.00;20.80;43.80;;;;;;109937;1252;49881;-57
2023/04/26 02:03:40;;;;;;;;;11.75;10.50;20.80;43.90;;;;;;109892;1257;50328;-57
2023/04/26 02:06:07;;;;;;;;;10.67;9.67;20.80;43.80;;;;;;109952;1256;46713;-59
2023/04/26 02:08:34;;;;;;;;;11.00;9.00;20.80;43.80;;;;;;109879;1257;56185;-58
2023/04/26 02:11:01;;;;;;;;;12.00;10.00;20.80;43.80;;;;;;109889;1257;54069;-58
2023/04/26 02:13:29;;;;;;;;;10.00;9.00;20.80;43.80;;;;;;109944;1252;50884;-56
2023/04/26 02:15:56;;;;;;;;;11.00;9.50;20.80;43.80;;;;;;109984;1257;48951;-57
2023/04/26 02:18:24;;;;;;;;;10.00;9.00;20.80;43.80;;;;;;109886;1257;45308;-58
2023/04/26 02:20:51;;;;;;;;;12.00;10.00;20.80;43.90;;;;;;109973;1252;55995;-57
2023/04/26 02:23:18;;;;;;;;;11.00;10.00;20.80;44.00;;;;;;109874;1255;53706;-58
2023/04/26 02:25:46;;;;;;;;;12.00;10.00;20.80;43.80;;;;;;109968;1257;49920;-59
2023/04/26 02:28:14;;;;;;;;;12.50;10.00;20.70;43.80;;;;;;109963;1255;49030;-59
2023/04/26 02:30:42;;;;;;;;;10.50;9.00;20.70;43.80;;;;;;110006;1257;45470;-59
2023/04/26 02:33:09;;;;;;;;;14.00;11.00;20.70;43.80;;;;;;109885;1254;56025;-57
2023/04/26 02:35:36;;;;;;;;;11.00;8.00;20.70;44.00;;;;;;109967;1257;54548;-58
2023/04/26 02:38:04;;;;;;;;;12.00;10.00;20.70;43.80;;;;;;109896;1252;49526;-58
2023/04/26 02:40:31;;;;;;;;;16.00;13.00;20.70;43.70;;;;;;109894;1252;49228;-57
2023/04/26 02:42:58;;;;;;;;;10.00;9.00;20.70;43.90;;;;;;109929;1257;46445;-58
2023/04/26 02:45:25;;;;;;;;;10.67;9.00;20.70;43.80;;;;;;109954;1253;55950;-58
2023/04/26 02:47:52;;;;;;;;;11.00;9.00;20.70;43.40;;;;;;109904;1257;53408;-57
2023/04/26 02:50:18;;;;;;;;;10.33;9.00;20.70;43.70;;;;;;109955;1252;49229;-56
2023/04/26 02:52:45;;;;;;;;;12.00;11.00;20.70;43.80;;;;;;109832;1252;49794;-59
2023/04/26 02:55:13;;;;;;;;;11.00;10.00;20.70;43.70;;;;;;109995;1254;45793;-57
2023/04/26 02:57:39;;;;;;;;;12.50;11.00;20.70;43.80;;;;;;109945;1257;56986;-58
2023/04/26 03:00:07;;;;;;;;;11.00;9.00;20.70;43.70;;;;;;109934;1253;54784;-56
2023/04/26 03:02:35;;;;;;;;;11.00;9.50;20.70;43.70;;;;;;109953;1252;49834;-58
2023/04/26 03:05:02;;;;;;;;;12.00;10.33;20.70;43.70;;;;;;109881;1252;49605;-58
2023/04/26 03:07:30;;;;;;;;;11.00;10.00;20.70;44.30;;;;;;110019;1257;45566;-56
2023/04/26 03:09:57;;;;;;;;;11.00;9.00;20.70;43.70;;;;;;109988;1252;56668;-57
2023/04/26 03:12:24;;;;;;;;;10.00;8.50;20.70;43.80;;;;;;109930;1256;53887;-58
2023/04/26 03:14:51;;;;;;;;;10.33;9.00;20.70;43.90;;;;;;109924;1252;49815;-57
2023/04/26 03:17:17;;;;;;;;;10.00;8.00;20.60;43.70;;;;;;109886;1252;50338;-57
2023/04/26 03:19:44;;;;;;;;;11.00;9.50;20.70;43.80;;;;;;110033;1252;46067;-58
2023/04/26 03:22:14;;;;;;;;;11.00;10.00;20.70;43.70;;;;;;109920;1252;55084;-58
2023/04/26 03:24:43;;;;;;;;;11.00;10.00;20.70;43.70;;;;;;109910;1256;54643;-58
2023/04/26 03:27:10;;;;;;;;;13.00;10.00;20.70;43.70;;;;;;109889;1256;49979;-57
2023/04/26 03:29:37;;;;;;;;;10.67;9.67;20.70;43.70;;;;;;109907;1251;49593;-56
2023/04/26 03:32:04;;;;;;;;;10.00;9.00;20.70;43.70;;;;;;109982;1257;45385;-57
2023/04/26 03:34:32;;;;;;;;;12.50;11.00;20.60;43.80;;;;;;109941;1257;56737;-58
2023/04/26 03:36:59;;;;;;;;;11.00;9.50;20.60;43.60;;;;;;109920;1255;55042;-58
2023/04/26 03:39:26;;;;;;;;;11.00;10.00;20.60;43.60;;;;;;109931;1252;49735;-58
2023/04/26 03:41:53;;;;;;;;;12.33;10.00;20.60;43.60;;;;;;109903;1252;50301;-58
2023/04/26 03:44:20;;;;;;;;;11.00;10.00;20.60;43.60;;;;;;109969;1253;45473;-57
2023/04/26 03:46:47;;;;;;;;;11.67;10.00;20.60;43.60;;;;;;109916;1257;55980;-58
2023/04/26 03:49:14;;;;;;;;;14.00;11.00;20.60;43.60;;;;;;109983;1252;55055;-58
2023/04/26 03:51:41;;;;;;;;;13.00;11.00;20.60;43.60;;;;;;109907;1252;49984;-57
2023/04/26 03:54:07;;;;;;;;;12.00;10.00;20.60;43.60;;;;;;109947;1255;49422;-58
2023/04/26 03:56:35;;;;;;;;;10.67;9.00;20.60;43.70;;;;;;109968;1257;45780;-59
2023/04/26 03:59:02;;;;;;;;;11.50;10.00;20.60;43.70;;;;;;109948;1252;56353;-58
2023/04/26 04:01:30;;;;;;;;;12.00;10.00;20.60;43.70;;;;;;109963;1251;54782;-58
2023/04/26 04:03:58;;;;;;;;;11.00;10.00;20.60;43.70;;;;;;109874;1254;50660;-57
2023/04/26 04:06:25;;;;;;;;;10.67;9.67;20.50;43.60;;;;;;110269;1254;49538;-57
2023/04/26 04:08:52;;;;;;;;;13.00;11.00;20.60;43.70;;;;;;109935;1257;46244;-58
2023/04/26 04:11:20;;;;;;;;;13.00;11.00;20.60;43.60;;;;;;109903;1255;55993;-58
2023/04/26 04:13:47;;;;;;;;;11.00;10.00;20.60;43.60;;;;;;109957;1252;54145;-58
2023/04/26 04:16:14;;;;;;;;;13.00;11.00;20.60;43.60;;;;;;109944;1257;49593;-59
2023/04/26 04:18:42;;;;;;;;;11.00;10.00;20.60;43.60;;;;;;109891;1256;49808;-58
2023/04/26 04:21:09;;;;;;;;;12.67;11.00;20.60;43.70;;;;;;109885;1257;45469;-59
2023/04/26 04:23:35;;;;;;;;;11.00;10.00;20.60;43.70;;;;;;109942;1252;56459;-58
2023/04/26 04:26:02;;;;;;;;;11.00;10.00;20.50;43.60;;;;;;109991;1257;53400;-57
2023/04/26 04:28:29;;;;;;;;;16.00;15.00;20.50;43.60;;;;;;109912;1252;49856;-58
2023/04/26 04:30:57;;;;;;;;;11.00;9.67;20.50;43.80;;;;;;109920;1254;49389;-58
2023/04/26 04:33:27;;;;;;;;;11.00;8.00;20.50;43.60;;;;;;109952;1252;45503;-58
2023/04/26 04:35:54;;;;;;;;;11.00;10.00;20.50;43.80;;;;;;109933;1257;55611;-59
2023/04/26 04:38:22;;;;;;;;;10.00;8.50;20.50;43.80;;;;;;109960;1252;54789;-58
2023/04/26 04:40:49;;;;;;;;;11.00;10.00;20.50;43.60;;;;;;109943;1254;50990;-57
2023/04/26 04:43:16;;;;;;;;;10.00;9.00;20.50;43.50;;;;;;109865;1258;50236;-57
2023/04/26 04:45:44;;;;;;;;;11.75;9.75;20.50;43.60;;;;;;110054;1252;46815;-57
2023/04/26 04:48:10;;;;;;;;;13.00;11.00;20.50;43.60;;;;;;109938;1257;55777;-58
2023/04/26 04:50:38;;;;;;;;;12.00;11.00;20.50;43.60;;;;;;109030;1252;1196536;-58
2023/04/26 04:53:05;;;;;;;;;13.50;10.50;20.50;43.60;;;;;;109889;1254;49227;-58
2023/04/26 04:55:32;;;;;;;;;11.00;9.00;20.50;43.80;;;;;;109940;1254;49883;-58
2023/04/26 04:58:00;;;;;;;;;12.00;10.00;20.50;43.60;;;;;;109913;1257;45525;-58
2023/04/26 05:00:27;;;;;;;;;13.00;12.00;20.50;43.60;;;;;;110000;1257;57001;-58
2023/04/26 05:02:55;;;;;;;;;13.33;12.00;20.50;43.60;;;;;;110001;1252;53639;-57
2023/04/26 05:05:22;;;;;;;;;11.67;10.33;20.50;43.60;;;;;;109993;1252;50735;-57
2023/04/26 05:07:49;;;;;;;;;12.00;10.00;20.40;43.50;;;;;;110020;1256;48990;-58
2023/04/26 05:10:16;;;;;;;;;12.00;10.75;20.50;43.60;;;;;;109957;1255;45989;-58
2023/04/26 05:12:43;;;;;;;;;12.00;10.50;20.40;43.50;;;;;;109919;1252;55627;-62
2023/04/26 05:15:10;;;;;;;;;13.00;12.00;20.50;43.60;;;;;;109922;1252;53508;-57
2023/04/26 05:17:37;;;;;;;;;11.67;11.00;20.40;43.50;;;;;;109940;1252;49996;-57
2023/04/26 05:20:06;;;;;;;;;13.00;11.00;20.40;43.50;;;;;;109887;1256;50154;-57
2023/04/26 05:22:35;;;;;;;;;11.33;9.67;20.40;43.70;;;;;;109931;1252;45920;-58
2023/04/26 05:25:03;;;;;;;;;14.00;13.00;20.40;43.50;;;;;;109937;1257;55944;-56
2023/04/26 05:27:31;;;;;;;;;11.50;11.00;20.40;43.60;;;;;;109928;1256;54096;-57
2023/04/26 05:30:00;;;;;;;;;11.00;10.00;20.40;43.50;;;;;;109946;1252;50538;-57
2023/04/26 05:32:27;;;;;;;;;11.50;10.50;20.40;43.50;;;;;;109908;1252;49669;-58
2023/04/26 05:34:54;;;;;;;;;11.00;9.50;20.40;43.60;;;;;;109935;1257;45190;-58
2023/04/26 05:37:21;;;;;;;;;11.50;10.00;20.40;43.60;;;;;;110017;1257;55845;-57
2023/04/26 05:39:48;;;;;;;;;15.00;11.00;20.40;43.50;;;;;;109919;1252;55074;-58
2023/04/26 05:42:15;;;;;;;;;11.67;10.00;20.40;43.50;;;;;;110060;1255;50128;-58
2023/04/26 05:44:42;;;;;;;;;13.00;10.00;20.40;43.50;;;;;;109928;1255;49650;-58
2023/04/26 05:47:09;;;;;;;;;15.00;12.00;20.40;43.70;;;;;;109987;1252;46796;-58
2023/04/26 05:49:36;;;;;;;;;13.00;11.00;20.40;43.50;;;;;;109951;1255;55797;-58
2023/04/26 05:52:03;;;;;;;;;11.00;10.00;20.40;43.50;;;;;;109932;1256;54309;-58
2023/04/26 05:54:30;;;;;;;;;11.00;10.00;20.40;43.50;;;;;;109960;1255;49693;-57
2023/04/26 05:56:57;;;;;;;;;11.00;10.00;20.40;43.60;;;;;;109894;1256;50605;-58
2023/04/26 05:59:24;;;;;;;;;10.00;8.00;20.40;43.60;;;;;;110103;1257;45596;-58
2023/04/26 06:01:51;;;;;;;;;12.67;9.00;20.40;43.80;;;;;;109998;1256;55044;-58
2023/04/26 06:04:18;;;;;;;;;12.00;11.00;20.40;43.50;;;;;;109896;1252;54261;-58
2023/04/26 06:06:45;;;;;;;;;11.00;10.00;20.40;43.60;;;;;;109960;1256;49891;-56
2023/04/26 06:09:12;;;;;;;;;12.00;10.00;20.30;43.50;;;;;;109904;1256;49022;-59
2023/04/26 06:11:39;;;;;;;;;11.33;10.00;20.40;43.80;;;;;;109983;1253;45586;-57
2023/04/26 06:14:06;;;;;;;;;11.67;10.00;20.40;43.70;;;;;;109990;1252;55212;-57
2023/04/26 06:16:33;;;;;;;;;12.00;11.00;20.40;43.60;;;;;;109923;1254;54808;-58
2023/04/26 06:19:00;;;;;;;;;13.00;12.00;20.40;43.60;;;;;;109952;1253;49695;-57
2023/04/26 06:21:27;;;;;;;;;12.00;11.00;20.40;43.60;;;;;;109931;1256;50859;-58
2023/04/26 06:23:54;;;;;;;;;12.50;11.00;20.40;43.50;;;;;;109888;1257;45968;-57
2023/04/26 06:26:21;;;;;;;;;12.00;11.00;20.30;43.40;;;;;;109943;1252;55893;-57
2023/04/26 06:28:48;;;;;;;;;12.33;11.00;20.30;43.50;;;;;;109970;1257;53416;-57
2023/04/26 06:31:15;;;;;;;;;11.50;10.00;20.30;43.60;;;;;;109923;1254;49021;-57
2023/04/26 06:33:42;;;;;;;;;13.00;11.00;20.30;43.40;;;;;;110012;1252;49234;-58
2023/04/26 06:36:12;;;;;;;;;13.00;12.00;20.30;43.60;;;;;;110015;1254;46262;-57
2023/04/26 06:38:39;;;;;;;;;13.50;11.00;20.30;43.60;;;;;;109927;1256;55758;-58
2023/04/26 06:41:07;;;;;;;;;11.50;10.50;20.30;43.50;;;;;;109866;1252;54291;-57
2023/04/26 06:43:34;;;;;;;;;12.00;11.00;20.30;43.40;;;;;;109977;1252;49434;-58
2023/04/26 06:46:01;;;;;;;;;13.00;12.00;20.30;43.50;;;;;;109921;1256;48922;-58
2023/04/26 06:48:28;;;;;;;;;13.00;10.00;20.30;43.70;;;;;;109905;1256;45795;-57
2023/04/26 06:50:55;;;;;;;;;12.00;10.50;20.30;43.40;;;;;;109887;1257;56364;-58
2023/04/26 06:53:22;;;;;;;;;12.00;11.00;20.30;43.50;;;;;;109955;1252;54407;-57
2023/04/26 06:55:49;;;;;;;;;11.67;10.67;20.30;43.50;;;;;;109973;1252;50096;-58
2023/04/26 06:58:16;;;;;;;;;13.00;12.00;20.30;43.50;;;;;;109970;1257;49235;-57
2023/04/26 07:00:43;;;;;;;;;12.00;11.00;20.30;43.50;;;;;;109898;1252;46704;-58
2023/04/26 07:03:10;;;;;;;;;13.00;12.00;20.30;43.50;;;;;;109899;1256;56537;-58
2023/04/26 07:05:38;;;;;;;;;12.00;11.00;20.30;43.50;;;;;;109960;1254;54186;-58
2023/04/26 07:08:05;;;;;;;;;12.50;11.00;20.30;43.50;;;;;;109943;1257;50542;-58
2023/04/26 07:10:32;;;;;;;;;13.00;12.00;20.30;43.50;;;;;;109907;1256;49599;-59
2023/04/26 07:12:59;;;;;;;;;12.00;11.00;20.30;43.50;;;;;;109912;1257;45308;-58
2023/04/26 07:15:27;;;;;;;;;12.00;11.00;20.30;43.00;;;;;;109986;1256;56644;-59
2023/04/26 07:17:54;;;;;;;;;13.00;12.00;20.30;43.50;;;;;;109978;1252;54042;-58
2023/04/26 07:20:22;;;;;;;;;15.00;11.00;20.30;43.40;;;;;;109969;1256;49823;-58
2023/04/26 07:22:50;;;;;;;;;13.00;11.00;20.30;43.40;;;;;;109924;1256;49184;-57
2023/04/26 07:25:17;;;;;;;;;12.50;10.50;20.30;43.40;;;;;;109919;1252;45808;-59
2023/04/26 07:27:44;;;;;;;;;15.50;13.50;20.30;43.40;;;;;;109935;1257;55715;-58
2023/04/26 07:30:11;;;;;;;;;11.00;10.00;20.30;43.40;;;;;;109926;1252;53126;-58
2023/04/26 07:32:38;;;;;;;;;13.50;12.50;20.30;43.60;;;;;;109927;1252;49778;-58
2023/04/26 07:35:06;;;;;;;;;14.33;13.00;20.30;43.50;;;;;;109971;1257;48936;-57
2023/04/26 07:37:33;;;;;;;;;13.00;12.00;20.30;43.40;;;;;;109979;1257;45310;-59
2023/04/26 07:40:00;;;;;;;;;14.00;13.00;20.30;43.40;;;;;;109977;1255;56217;-58
2023/04/26 07:42:27;;;;;;;;;14.33;12.00;20.30;43.40;;;;;;109935;1252;55023;-58
2023/04/26 07:44:54;;;;;;;;;17.00;14.00;20.30;43.40;;;;;;110013;1252;50670;-58
2023/04/26 07:47:21;;;;;;;;;14.00;12.50;20.30;43.40;;;;;;110022;1257;48880;-58
2023/04/26 07:49:52;;;;;;;;;13.00;12.00;20.40;43.30;;;;;;110041;1255;46168;-58
2023/04/26 07:52:19;;;;;;;;;14.33;13.00;20.30;43.40;;;;;;109959;1257;55280;-58
2023/04/26 07:54:46;;;;;;;;;18.00;16.00;20.30;43.40;;;;;;110004;1252;53998;-57
2023/04/26 07:57:13;;;;;;;;;13.00;12.00;20.40;43.50;;;;;;109932;1254;49886;-58
2023/04/26 07:59:40;;;;;;;;;14.00;13.00;20.40;43.50;;;;;;109899;1255;49566;-59
2023/04/26 08:02:07;;;;;;;;;14.00;13.00;20.40;43.40;;;;;;109924;1257;46302;-58
2023/04/26 08:04:34;;;;;;;;;17.50;13.00;20.40;43.50;;;;;;110045;1256;55271;-61
2023/04/26 08:07:01;;;;;;;;;14.00;13.00;20.30;43.50;;;;;;109937;1252;54008;-58
2023/04/26 08:09:29;;;;;;;;;14.00;13.00;20.30;43.30;;;;;;109941;1254;49639;-58
2023/04/26 08:11:56;;;;;;;;;14.00;13.00;20.40;43.40;;;;;;109942;1252;50082;-58
2023/04/26 08:14:23;;;;;;;;;12.50;11.00;20.30;43.30;;;;;;109977;1252;45562;-58
2023/04/26 08:16:50;;;;;;;;;15.00;14.00;20.40;43.60;;;;;;109953;1252;56980;-59
2023/04/26 08:19:17;;;;;;;;;14.00;13.00;20.40;43.40;;;;;;109998;1252;53710;-58
2023/04/26 08:21:44;;;;;;;;;16.00;14.00;20.40;43.40;;;;;;109983;1257;49520;-59
2023/04/26 08:24:11;;;;;;;;;13.67;12.67;20.40;43.00;;;;;;109972;1256;49840;-57
2023/04/26 08:26:38;;;;;;;;;16.50;15.00;20.40;43.50;;;;;;109999;1253;46660;-58
2023/04/26 08:29:05;;;;;;;;;16.00;14.00;20.30;43.30;;;;;;109971;1256;55855;-57
2023/04/26 08:31:32;;;;;;;;;16.67;14.00;20.40;43.50;;;;;;109907;1257;55148;-59
2023/04/26 08:33:59;;;;;;;;;15.50;14.50;20.30;43.30;;;;;;109958;1255;49741;-57
2023/04/26 08:36:26;;;;;;;;;15.00;13.00;20.30;43.50;;;;;;109919;1252;49265;-57
2023/04/26 08:38:56;;;;;;;;;16.00;15.00;20.30;43.30;;;;;;110031;1255;46597;-58
2023/04/26 08:41:24;;;;;;;;;16.00;14.00;20.30;43.30;;;;;;109952;1257;55951;-57
2023/04/26 08:43:53;;;;;;;;;15.00;14.00;20.30;43.30;;;;;;109911;1256;53868;-58
2023/04/26 08:46:20;;;;;;;;;17.00;15.00;20.30;43.30;;;;;;109905;1252;49891;-60
2023/04/26 08:48:54;;;;;;;;;15.00;12.50;20.30;43.30;;;;;;109922;1258;48825;-59
2023/04/26 08:51:22;;;;;;;;;18.00;15.00;20.40;43.30;;;;;;110009;1252;45956;-59
2023/04/26 08:53:51;;;;;;;;;15.67;14.67;20.40;43.30;;;;;;109961;1257;55733;-57
2023/04/26 08:56:22;;;;;;;;;15.00;13.50;20.30;43.70;;;;;;110029;1257;53692;-59
2023/04/26 08:58:49;;;;;;;;;15.00;14.00;20.40;43.50;;;;;;109978;1252;50440;-61
2023/04/26 09:01:17;;;;;;;;;17.50;15.00;20.40;43.20;;;;;;109990;1252;49492;-59
2023/04/26 09:03:44;;;;;;;;;14.00;13.00;20.40;43.30;;;;;;109948;1252;46006;-59
2023/04/26 09:06:11;;;;;;;;;17.00;14.00;20.40;43.30;;;;;;109971;1256;55340;-57
2023/04/26 09:08:40;;;;;;;;;16.00;15.00;20.40;43.20;;;;;;109940;1252;54303;-58
2023/04/26 09:11:07;;;;;;;;;16.67;15.33;20.40;43.20;;;;;;109906;1252;49891;-59
2023/04/26 09:13:34;;;;;;;;;15.00;13.50;20.40;43.40;;;;;;109968;1257;49980;-59
2023/04/26 09:16:01;;;;;;;;;14.50;13.00;20.30;43.10;;;;;;110014;1251;46241;-58
2023/04/26 09:18:30;;;;;;;;;16.00;14.50;20.30;43.20;;;;;;109989;1254;56135;-59
2023/04/26 09:21:02;;;;;;;;;19.00;15.00;20.40;43.20;;;;;;109962;1256;53477;-59
2023/04/26 09:23:30;;;;;;;;;15.00;14.00;20.30;43.20;;;;;;109983;1256;49940;-58
2023/04/26 09:26:19;;;;;;;;;18.00;14.67;20.30;43.20;;;;;;110024;1252;49583;-58
2023/04/26 09:28:47;;;;;;;;;19.00;17.50;20.30;43.20;;;;;;110005;1252;45695;-57
2023/04/26 09:31:39;;;;;;;;;17.00;16.00;20.30;43.20;;;;;;109961;1257;55053;-59
2023/04/26 09:34:09;;;;;;;;;18.00;16.00;20.30;43.30;;;;;;110003;1252;53964;-58
2023/04/26 09:36:50;;;;;;;;;20.50;17.00;20.30;43.20;;;;;;109997;1257;48937;-58
2023/04/26 09:39:36;;;;;;;;;17.00;16.00;20.30;43.20;;;;;;109931;1256;48961;-57
2023/04/26 09:42:04;;;;;;;;;17.50;16.00;20.30;43.10;;;;;;110010;1256;45660;-57
2023/04/26 09:44:31;;;;;;;;;15.00;13.00;20.30;43.30;;;;;;109985;1257;55697;-58
2023/04/26 09:47:07;;;;;;;;;19.00;16.00;20.30;43.20;;;;;;109996;1252;54197;-58
2023/04/26 09:49:45;;;;;;;;;18.00;15.00;20.30;43.20;;;;;;109957;1256;49253;-58
2023/04/26 09:52:13;;;;;;;;;19.00;17.00;20.40;43.20;;;;;;109969;1252;49409;-57
2023/04/26 09:54:51;;;;;;;;;16.25;15.00;20.40;43.20;;;;;;109984;1255;45710;-59
2023/04/26 09:57:20;;;;;;;;;18.00;16.33;20.30;43.10;;;;;;109989;1253;55810;-59
2023/04/26 09:59:50;;;;;;;;;16.00;14.50;20.40;43.10;;;;;;110005;1252;54366;-58
2023/04/26 10:02:23;;;;;;;;;17.00;16.00;20.40;43.10;;;;;;109985;1252;49199;-58
2023/04/26 10:04:52;;;;;;;;;20.00;18.00;20.40;43.10;;;;;;109850;1257;49741;-58
2023/04/26 10:07:23;;;;;;;;;16.50;14.50;20.40;43.10;;;;;;109993;1255;46017;-59
2023/04/26 10:09:50;;;;;;;;;16.00;15.00;20.40;43.10;;;;;;109973;1252;56761;-58
2023/04/26 10:12:18;;;;;;;;;18.00;16.00;20.40;43.10;;;;;;110012;1256;53887;-58
2023/04/26 10:14:46;;;;;;;;;18.00;15.00;20.40;43.10;;;;;;109949;1257;50916;-58
2023/04/26 10:17:13;;;;;;;;;17.67;16.33;20.40;43.10;;;;;;109936;1256;49693;-59
2023/04/26 10:19:43;;;;;;;;;16.50;14.50;20.40;43.10;;;;;;109960;1257;46068;-58
2023/04/26 10:22:16;;;;;;;;;17.75;16.50;20.40;43.10;;;;;;109929;1256;55853;-57
2023/04/26 10:24:44;;;;;;;;;16.00;15.00;20.40;43.30;;;;;;109970;1257;53500;-59
2023/04/26 10:27:12;;;;;;;;;18.33;17.00;20.40;43.40;;;;;;109946;1252;50031;-57
2023/04/26 10:29:54;;;;;;;;;19.67;16.67;20.40;43.10;;;;;;109976;1252;49737;-58
2023/04/26 10:32:22;;;;;;;;;19.00;17.00;20.50;43.20;;;;;;109905;1253;46541;-58
2023/04/26 10:35:11;;;;;;;;;17.50;16.00;20.40;43.10;;;;;;109973;1252;56462;-58
2023/04/26 10:37:59;;;;;;;;;19.00;17.00;20.40;43.10;;;;;;109927;1252;54291;-58
2023/04/26 10:40:27;;;;;;;;;19.00;15.00;20.40;43.10;;;;;;109920;1257;49880;-58
2023/04/26 10:43:18;;;;;;;;;15.00;14.00;20.40;43.10;;;;;;110011;1257;49210;-58
2023/04/26 10:45:46;;;;;;;;;17.00;15.00;20.40;43.60;;;;;;109908;1254;45907;-58
2023/04/26 10:48:17;;;;;;;;;20.00;18.00;20.40;43.10;;;;;;109915;1253;55881;-57
2023/04/26 10:51:17;;;;;;;;;17.50;16.00;20.50;43.10;;;;;;110002;1255;54190;-57
2023/04/26 10:53:47;;;;;;;;;20.00;18.50;20.50;43.10;;;;;;109977;1254;49280;-57
2023/04/26 10:56:23;;;;;;;;;16.00;15.00;20.50;43.10;;;;;;110013;1256;49542;-58
2023/04/26 10:59:14;;;;;;;;;17.00;16.00;20.50;43.30;;;;;;110017;1252;45280;-58
2023/04/26 11:01:41;;;;;;;;;16.00;15.00;20.50;43.20;;;;;;110009;1257;56161;-59
2023/04/26 11:04:10;;;;;;;;;16.00;14.00;20.50;43.00;;;;;;109935;1257;54132;-58
2023/04/26 11:06:50;;;;;;;;;17.00;14.50;20.50;43.00;;;;;;110040;1255;49885;-58
2023/04/26 11:09:38;;;;;;;;;15.00;14.00;20.50;43.20;;;;;;109954;1252;49566;-58
2023/04/26 11:12:12;;;;;;;;;19.00;16.00;20.50;43.10;;;;;;109994;1256;46029;-57
2023/04/26 11:14:44;;;;;;;;;18.00;16.00;20.50;43.00;;;;;;109725;1256;55852;-58
2023/04/26 11:17:12;;;;;;;;;21.00;16.00;20.50;42.90;;;;;;109992;1254;53500;-59
2023/04/26 11:19:40;;;;;;;;;16.00;15.00;20.50;43.00;;;;;;109900;1254;49918;-61
2023/04/26 11:22:07;;;;;;;;;15.50;14.00;20.50;42.90;;;;;;110041;1252;49230;-58
2023/04/26 11:24:38;;;;;;;;;19.00;15.50;20.50;42.90;;;;;;109777;1252;45490;-59
2023/04/26 11:27:09;;;;;;;;;15.00;13.50;20.50;42.80;;;;;;109932;1255;56309;-59
2023/04/26 11:29:37;;;;;;;;;17.25;14.75;20.50;42.70;;;;;;109955;1252;53602;-68
2023/04/26 11:32:05;;;;;;;;;14.00;13.00;20.60;43.40;;;;;;110105;1252;49864;-68
2023/04/26 11:34:38;;;;;;;;;19.00;17.00;20.60;44.40;;;;;;110458;1251;49155;-66
2023/04/26 11:37:06;;;;;;;;;22.00;19.00;20.60;43.90;;;;;;110002;1257;45479;-67
2023/04/26 11:39:36;;;;;;;;;21.00;19.00;20.60;43.60;;;;;;110038;1257;55186;-66
2023/04/26 11:42:05;;;;;;;;;20.67;18.00;20.70;43.60;;;;;;109981;1252;54264;-68
2023/04/26 11:44:33;;;;;;;;;19.67;17.33;20.70;43.40;;;;;;110347;1257;49524;-67
2023/04/26 11:47:02;;;;;;;;;23.00;20.00;20.80;43.50;;;;;;110051;1255;49201;-61
2023/04/26 11:49:35;;;;;;;;;20.00;18.00;20.80;44.10;;;;;;110004;1257;46122;-60
2023/04/26 11:52:03;;;;;;;;;19.50;18.50;20.80;45.30;;;;;;109992;1254;55388;-61
2023/04/26 11:54:34;;;;;;;;;20.50;19.00;20.80;45.60;;;;;;110300;1254;53714;-68
2023/04/26 11:57:12;;;;;;;;;19.00;17.00;20.80;46.20;;;;;;110180;1252;49493;-65
2023/04/26 11:59:40;;;;;;;;;25.00;17.00;20.90;45.80;;;;;;110059;1253;49396;-65
2023/04/26 12:02:07;;;;;;;;;20.00;17.00;21.00;46.70;;;;;;110099;1254;46768;-65
2023/04/26 12:04:38;;;;;;;;;21.00;17.00;21.00;46.60;;;;;;110374;1257;55643;-65
2023/04/26 12:07:06;;;;;;;;;21.00;18.00;21.00;46.80;;;;;;110055;1254;53809;-68
2023/04/26 12:09:33;;;;;;;;;20.00;19.00;21.10;46.30;;;;;;110064;1256;50114;-65
2023/04/26 12:12:01;;;;;;;;;23.00;18.00;21.20;45.80;;;;;;110085;1257;49786;-66
2023/04/26 12:14:36;;;;;;;;;19.50;17.50;21.30;45.60;;;;;;110427;1252;45710;-69
2023/04/26 12:17:04;;;;;;;;;19.00;17.00;21.40;45.60;;;;;;110069;1252;55154;-68
2023/04/26 12:19:32;;;;;;;;;20.00;18.00;21.40;45.40;;;;;;110080;1252;54514;-69
2023/04/26 12:22:00;;;;;;;;;20.67;16.00;21.60;45.40;;;;;;110028;1256;50620;-71
2023/04/26 12:24:32;;;;;;;;;18.00;16.00;21.70;45.20;;;;;;110286;1257;49764;-70